KTBR/TBR METAR and TAF weather

Enter ICAO airport designator
Station Type Date Time Source
KTBR METAR 2020/07/14 05:55 UTC NOAA

KTBR 140555Z AUTO 00000KT 10SM SCT065 25/21 A2992 RMK AO2 T02500209 10312 20240 403370231


Station Type Date Time Source
KTBR Decoded METAR 2020/07/14 05:55 UTC NOAA

Statesboro, Statesboro-Bulloch County Airport, GA, United States (KTBR) 32-28-59N 081-44-14W
Jul 14, 2020 - 01:55 AM EDT / 2020.07.14 0555 UTC
Wind: Calm:0
Visibility: 10 mile(s):0
Sky conditions: partly cloudy
Temperature: 77.0 F (25.0 C)
Dew Point: 69.6 F (20.9 C)
Relative Humidity: 78%
Pressure (altimeter): 29.92 in. Hg (1013 hPa)
ob: KTBR 140555Z AUTO 00000KT 10SM SCT065 25/21 A2992 RMK AO2 T02500209 10312 20240 403370231
cycle: 6

Station Type Date Time Source
KTBR TAF UTC NOAA

Error!

Example: see airport list